Time;durP1;ratioP1;P1;durP2;ratioP2;P2;SDS_P1;SDS_P2;PMS_P1;PMS_P2;Temp;Humidity;BMP_temperature;BMP_pressure;BME280_temperature;BME280_humidity;BME280_pressure;Samples;Min_cycle;Max_cycle;Signal;HPM_P1;HPM_P2
2022/03/11 00:01:45;;;;;;;8.05;5.30;;;8.90;48.60;;;;;;5093048;28;20028;-40
2022/03/11 00:04:11;;;;;;;8.10;4.93;;;8.80;48.60;;;;;;5092823;28;20096;-40
2022/03/11 00:06:36;;;;;;;7.80;5.28;;;8.80;48.70;;;;;;5092683;28;20086;-39
2022/03/11 00:09:03;;;;;;;9.90;5.03;;;8.70;48.70;;;;;;5092990;28;20024;-40
2022/03/11 00:11:28;;;;;;;8.90;5.20;;;8.70;48.80;;;;;;5092762;28;20069;-40
2022/03/11 00:13:54;;;;;;;8.27;5.68;;;8.70;48.90;;;;;;5093380;28;20049;-40
2022/03/11 00:16:20;;;;;;;9.45;4.85;;;8.70;49.00;;;;;;5097017;28;20059;-40
2022/03/11 00:18:46;;;;;;;8.98;5.30;;;8.70;49.00;;;;;;5096892;28;20452;-40
2022/03/11 00:21:12;;;;;;;8.48;5.05;;;8.60;49.00;;;;;;5096806;28;20024;-40
2022/03/11 00:23:45;;;;;;;9.73;5.95;;;8.60;49.10;;;;;;5097117;28;20084;-39
2022/03/11 00:26:13;;;;;;;10.00;5.90;;;8.60;49.20;;;;;;5096892;28;20089;-40
2022/03/11 00:28:38;;;;;;;9.50;5.68;;;8.50;49.30;;;;;;5078638;28;20506;-39
2022/03/11 00:31:07;;;;;;;8.93;5.72;;;8.50;49.30;;;;;;5096838;28;20016;-39
2022/03/11 00:33:34;;;;;;;9.73;5.65;;;8.50;49.40;;;;;;5096553;28;20122;-40
2022/03/11 00:36:00;;;;;;;8.43;5.93;;;8.50;49.60;;;;;;5096547;28;20020;-39
2022/03/11 00:38:26;;;;;;;9.80;6.10;;;8.40;49.60;;;;;;5096853;28;20020;-38
2022/03/11 00:40:56;;;;;;;11.77;5.63;;;8.40;50.40;;;;;;5096467;28;20031;-39
2022/03/11 00:43:23;;;;;;;10.05;5.97;;;8.30;49.80;;;;;;5096406;28;20028;-40
2022/03/11 00:45:49;;;;;;;8.35;5.70;;;8.30;49.90;;;;;;5096387;28;20059;-40
2022/03/11 00:48:14;;;;;;;9.45;5.72;;;8.30;50.00;;;;;;5096300;28;20020;-40
2022/03/11 00:50:40;;;;;;;9.35;5.45;;;8.30;50.10;;;;;;5096333;28;20032;-39
2022/03/11 00:53:06;;;;;;;10.43;5.63;;;8.20;50.10;;;;;;5096273;28;20023;-39
2022/03/11 00:55:31;;;;;;;9.50;5.70;;;8.20;50.20;;;;;;5096063;28;20048;-40
2022/03/11 00:57:57;;;;;;;9.02;5.63;;;8.10;50.30;;;;;;5096038;28;20476;-40
2022/03/11 01:00:23;;;;;;;14.23;5.97;;;8.10;50.40;;;;;;5096076;28;20072;-40
2022/03/11 01:02:49;;;;;;;10.65;6.22;;;8.10;50.50;;;;;;5096119;28;20028;-38
2022/03/11 01:05:15;;;;;;;9.98;5.68;;;8.10;50.60;;;;;;5096050;28;20024;-40
2022/03/11 01:07:41;;;;;;;7.88;5.47;;;8.10;50.60;;;;;;5095933;28;20102;-41
2022/03/11 01:10:08;;;;;;;9.77;6.35;;;8.10;50.70;;;;;;5096204;28;20485;-40
2022/03/11 01:12:33;;;;;;;10.10;6.20;;;8.00;50.80;;;;;;5096125;28;20499;-41
2022/03/11 01:14:59;;;;;;;10.25;6.07;;;8.00;50.90;;;;;;5095809;28;20024;-41
2022/03/11 01:17:25;;;;;;;9.27;5.60;;;7.90;50.90;;;;;;5095784;28;20016;-41
2022/03/11 01:19:50;;;;;;;9.48;6.00;;;7.90;51.00;;;;;;5095908;28;20020;-41
2022/03/11 01:22:17;;;;;;;7.97;5.25;;;7.90;51.10;;;;;;5095586;28;20020;-41
2022/03/11 01:24:42;;;;;;;8.80;5.60;;;7.90;51.20;;;;;;5095858;28;20140;-40
2022/03/11 01:27:08;;;;;;;9.63;6.32;;;7.90;51.30;;;;;;5094861;28;20053;-41
2022/03/11 01:29:34;;;;;;;10.93;6.13;;;7.90;51.40;;;;;;5095563;28;20020;-38
2022/03/11 01:31:59;;;;;;;9.15;6.35;;;7.80;51.40;;;;;;5095505;28;20049;-41
2022/03/11 01:34:25;;;;;;;11.63;6.07;;;7.80;51.50;;;;;;5077238;28;20028;-40
2022/03/11 01:36:51;;;;;;;10.73;6.25;;;7.80;51.60;;;;;;5095374;28;20029;-40
2022/03/11 01:39:16;;;;;;;9.00;6.07;;;7.70;51.60;;;;;;5095400;28;20434;-40
2022/03/11 01:41:42;;;;;;;9.32;6.00;;;7.70;51.70;;;;;;5095155;28;20081;-40
2022/03/11 01:44:09;;;;;;;8.45;5.68;;;7.70;51.80;;;;;;5095163;28;20070;-40
2022/03/11 01:46:36;;;;;;;9.32;6.20;;;7.70;51.90;;;;;;5095101;28;20508;-39
2022/03/11 01:49:04;;;;;;;9.75;6.30;;;7.60;52.00;;;;;;5095448;28;20104;-40
2022/03/11 01:51:32;;;;;;;9.45;6.05;;;7.60;52.00;;;;;;5095128;28;20020;-40
2022/03/11 01:53:58;;;;;;;10.25;6.05;;;7.60;52.20;;;;;;5095275;28;20030;-40
2022/03/11 01:56:26;;;;;;;8.40;5.25;;;7.60;52.20;;;;;;5094878;28;20056;-39
2022/03/11 01:58:53;;;;;;;11.15;6.50;;;7.50;52.20;;;;;;5095004;28;20038;-40
2022/03/11 02:01:20;;;;;;;11.82;6.38;;;7.50;52.30;;;;;;5095117;28;20016;-40
2022/03/11 02:03:46;;;;;;;9.18;5.85;;;7.50;52.40;;;;;;5094885;28;20032;-40
2022/03/11 02:06:13;;;;;;;9.60;5.57;;;7.50;52.50;;;;;;5094820;28;20020;-39
2022/03/11 02:08:39;;;;;;;9.40;5.78;;;7.50;52.60;;;;;;5076536;28;20020;-40
2022/03/11 02:11:05;;;;;;;10.88;6.00;;;7.40;52.80;;;;;;5094792;28;20028;-39
2022/03/11 02:13:49;;;;;;;8.93;5.68;;;7.40;52.70;;;;;;5076589;28;20369;-41
2022/03/11 02:16:17;;;;;;;10.52;6.00;;;7.40;52.90;;;;;;5094926;28;20032;-40
2022/03/11 02:18:43;;;;;;;8.43;5.43;;;7.30;52.90;;;;;;5094448;28;20059;-40
2022/03/11 02:21:09;;;;;;;8.57;6.05;;;7.30;53.00;;;;;;5094532;28;20503;-40
2022/03/11 02:23:56;;;;;;;8.68;5.90;;;7.30;53.10;;;;;;5094361;28;20025;-39
2022/03/11 02:26:24;;;;;;;10.30;6.03;;;7.20;53.20;;;;;;5094466;28;20472;-40
2022/03/11 02:28:51;;;;;;;9.65;6.03;;;7.20;53.20;;;;;;5094294;28;20099;-40
2022/03/11 02:31:21;;;;;;;12.00;6.30;;;7.20;53.30;;;;;;5094287;28;20020;-40
2022/03/11 02:33:47;;;;;;;9.02;5.75;;;7.10;53.40;;;;;;5094116;28;20016;-40
2022/03/11 02:36:13;;;;;;;10.13;6.10;;;7.10;53.40;;;;;;5094262;28;20115;-40
2022/03/11 02:38:39;;;;;;;8.70;5.35;;;7.10;53.50;;;;;;5092978;28;20056;-39
2022/03/11 02:41:06;;;;;;;9.95;5.68;;;7.10;53.60;;;;;;5075834;28;20028;-39
2022/03/11 02:43:31;;;;;;;9.52;5.90;;;7.10;53.70;;;;;;5094096;28;20020;-39
2022/03/11 02:45:57;;;;;;;7.55;5.20;;;7.10;53.70;;;;;;5094024;28;20035;-40
2022/03/11 02:48:23;;;;;;;9.07;5.65;;;7.00;53.70;;;;;;5094162;28;20433;-40
2022/03/11 02:50:49;;;;;;;10.13;5.70;;;7.00;53.80;;;;;;5093970;28;20019;-40
2022/03/11 02:53:14;;;;;;;9.27;6.05;;;7.00;53.90;;;;;;5075702;28;20013;-40
2022/03/11 02:55:40;;;;;;;8.20;5.90;;;7.00;54.00;;;;;;5093516;28;20051;-40
2022/03/11 02:58:06;;;;;;;9.63;5.80;;;7.00;54.10;;;;;;5093898;28;20098;-40
2022/03/11 03:00:31;;;;;;;9.35;5.97;;;6.90;54.10;;;;;;5093718;28;20476;-40
2022/03/11 03:02:57;;;;;;;8.20;5.63;;;6.90;54.10;;;;;;5093767;28;20020;-39
2022/03/11 03:05:23;;;;;;;7.95;5.32;;;6.90;54.20;;;;;;5093856;28;20112;-41
2022/03/11 03:07:49;;;;;;;9.43;5.78;;;6.90;54.20;;;;;;5093640;28;20020;-40
2022/03/11 03:10:14;;;;;;;8.23;5.35;;;6.90;54.30;;;;;;5093531;28;20020;-39
2022/03/11 03:12:40;;;;;;;9.13;5.95;;;6.90;54.40;;;;;;5093665;28;20153;-40
2022/03/11 03:15:08;;;;;;;9.00;5.38;;;6.80;54.40;;;;;;5093702;28;20157;-40
2022/03/11 03:17:36;;;;;;;8.38;5.55;;;6.80;54.40;;;;;;5093570;28;20027;-39
2022/03/11 03:20:04;;;;;;;7.55;5.57;;;6.80;54.50;;;;;;5093507;28;20024;-41
2022/03/11 03:22:30;;;;;;;10.48;6.25;;;6.80;54.60;;;;;;5093386;28;20514;-40
2022/03/11 03:24:55;;;;;;;8.98;5.47;;;6.70;54.70;;;;;;5093363;28;20098;-40
2022/03/11 03:27:21;;;;;;;7.95;5.43;;;6.70;54.80;;;;;;5093579;28;20055;-40
2022/03/11 03:29:46;;;;;;;8.68;5.78;;;6.70;54.80;;;;;;5075319;28;20017;-40
2022/03/11 03:32:12;;;;;;;9.73;5.88;;;6.70;54.90;;;;;;5093219;28;20051;-40
2022/03/11 03:34:38;;;;;;;8.40;4.95;;;6.70;54.90;;;;;;5093088;28;20537;-39
2022/03/11 03:37:09;;;;;;;8.82;5.68;;;6.70;54.90;;;;;;5093077;28;20024;-40
2022/03/11 03:39:36;;;;;;;7.30;5.20;;;6.60;55.00;;;;;;5093059;28;20020;-40
2022/03/11 03:42:02;;;;;;;7.82;5.20;;;6.60;55.00;;;;;;5074916;28;20020;-41
2022/03/11 03:44:28;;;;;;;10.40;5.72;;;6.60;55.10;;;;;;5092886;28;20027;-40
2022/03/11 03:46:54;;;;;;;7.85;5.25;;;6.60;55.20;;;;;;5092848;28;20081;-41
2022/03/11 03:49:19;;;;;;;8.23;5.43;;;6.50;55.20;;;;;;5092615;28;20468;-40
2022/03/11 03:51:45;;;;;;;10.55;5.38;;;6.50;55.30;;;;;;5092835;28;20020;-39
2022/03/11 03:54:11;;;;;;;8.38;5.55;;;6.50;55.30;;;;;;5092870;28;20024;-40
2022/03/11 03:56:37;;;;;;;7.53;5.15;;;6.50;55.40;;;;;;5093089;28;20490;-40
2022/03/11 03:59:07;;;;;;;8.23;5.28;;;6.40;55.30;;;;;;5093063;28;20028;-40
2022/03/11 04:01:38;;;;;;;8.38;5.70;;;6.40;55.40;;;;;;5092657;28;20476;-40
2022/03/11 04:04:04;;;;;;;7.68;5.18;;;6.50;55.50;;;;;;5092663;28;20024;-40
2022/03/11 04:06:31;;;;;;;8.70;5.70;;;6.50;55.60;;;;;;5092680;28;20024;-39
2022/03/11 04:08:58;;;;;;;8.40;5.53;;;6.40;55.60;;;;;;5074559;28;20050;-41
2022/03/11 04:11:25;;;;;;;8.20;5.80;;;6.40;55.60;;;;;;5092749;28;20020;-40
2022/03/11 04:13:51;;;;;;;8.48;5.43;;;6.40;55.70;;;;;;5092936;28;20472;-41
2022/03/11 04:16:18;;;;;;;10.32;6.07;;;6.30;55.80;;;;;;5074605;28;20115;-41
2022/03/11 04:18:44;;;;;;;8.63;5.53;;;6.30;55.80;;;;;;5074497;28;20069;-40
2022/03/11 04:21:09;;;;;;;10.07;5.68;;;6.30;55.80;;;;;;5092677;28;20032;-40
2022/03/11 04:23:35;;;;;;;8.35;5.32;;;6.30;55.90;;;;;;5092806;28;20099;-40
2022/03/11 04:26:01;;;;;;;10.30;5.78;;;6.30;56.50;;;;;;5092792;28;20024;-41
2022/03/11 04:28:27;;;;;;;7.13;4.88;;;6.20;56.00;;;;;;5092470;28;20495;-41
2022/03/11 04:30:52;;;;;;;7.32;5.00;;;6.30;56.10;;;;;;5092458;28;20053;-41
2022/03/11 04:33:18;;;;;;;8.77;5.13;;;6.30;56.10;;;;;;5074381;28;20396;-42
2022/03/11 04:35:44;;;;;;;8.13;5.18;;;6.20;56.70;;;;;;5092723;28;20025;-41
2022/03/11 04:38:10;;;;;;;8.43;5.03;;;6.20;56.20;;;;;;5092536;28;20081;-41
2022/03/11 04:40:35;;;;;;;7.45;4.93;;;6.20;56.20;;;;;;5092782;28;20032;-40
2022/03/11 04:43:01;;;;;;;8.77;5.50;;;6.20;56.20;;;;;;5092464;28;20031;-41
2022/03/11 04:45:27;;;;;;;8.52;5.65;;;6.20;56.30;;;;;;5092602;28;20457;-41
2022/03/11 04:47:53;;;;;;;7.47;5.30;;;6.20;56.40;;;;;;5092459;28;20024;-41
2022/03/11 04:50:19;;;;;;;8.73;5.47;;;6.20;57.00;;;;;;5092397;28;20024;-41
2022/03/11 04:52:45;;;;;;;7.22;5.30;;;6.20;56.40;;;;;;5074134;28;20026;-41
2022/03/11 04:55:11;;;;;;;7.57;4.80;;;6.20;56.50;;;;;;5092130;28;20467;-41
2022/03/11 04:57:37;;;;;;;9.10;5.72;;;6.10;56.40;;;;;;5092096;28;20016;-40
2022/03/11 05:00:03;;;;;;;8.32;5.78;;;6.20;56.50;;;;;;5092332;28;20027;-40
2022/03/11 05:02:30;;;;;;;9.32;5.70;;;6.10;56.50;;;;;;5095240;28;20108;-40
2022/03/11 05:04:56;;;;;;;8.88;5.18;;;6.20;56.60;;;;;;5095788;28;20523;-40
2022/03/11 05:07:22;;;;;;;7.60;5.18;;;6.10;56.60;;;;;;5095832;28;20070;-40
2022/03/11 05:09:47;;;;;;;9.98;5.60;;;6.10;56.60;;;;;;5095872;28;20016;-39
2022/03/11 05:12:13;;;;;;;9.40;5.75;;;6.10;56.70;;;;;;5077683;28;20024;-40
2022/03/11 05:14:39;;;;;;;8.00;5.18;;;6.10;56.70;;;;;;5095717;28;20016;-39
2022/03/11 05:17:05;;;;;;;9.18;5.30;;;6.10;56.80;;;;;;5095801;28;20476;-40
2022/03/11 05:19:31;;;;;;;9.45;5.18;;;6.10;56.80;;;;;;5095516;28;20020;-40
2022/03/11 05:21:56;;;;;;;7.97;5.10;;;6.10;57.40;;;;;;5095590;28;20032;-40
2022/03/11 05:24:22;;;;;;;8.23;5.28;;;6.10;56.80;;;;;;5095445;28;20232;-38
2022/03/11 05:26:48;;;;;;;6.60;4.88;;;6.00;56.80;;;;;;5095340;28;20027;-40
2022/03/11 05:29:14;;;;;;;8.43;4.95;;;6.00;56.90;;;;;;5095340;28;20024;-40
2022/03/11 05:31:40;;;;;;;7.65;4.93;;;6.00;56.90;;;;;;5095095;28;20016;-40
2022/03/11 05:34:07;;;;;;;8.48;5.38;;;6.00;56.90;;;;;;5095164;28;20019;-40
2022/03/11 05:36:32;;;;;;;10.13;5.40;;;6.00;56.90;;;;;;5095323;28;20103;-40
2022/03/11 05:38:58;;;;;;;8.27;4.90;;;6.00;56.90;;;;;;5095182;28;20518;-40
2022/03/11 05:41:24;;;;;;;7.38;4.72;;;6.00;56.90;;;;;;5095324;28;20472;-40
2022/03/11 05:43:49;;;;;;;7.47;4.80;;;6.00;56.90;;;;;;5095220;28;20438;-40
2022/03/11 05:46:15;;;;;;;8.05;5.07;;;6.00;56.90;;;;;;5095094;28;20056;-40
2022/03/11 05:48:41;;;;;;;8.18;4.82;;;6.00;57.00;;;;;;5095193;28;20502;-40
2022/03/11 05:51:06;;;;;;;7.03;4.90;;;6.00;57.00;;;;;;5095107;28;20067;-41
2022/03/11 05:53:32;;;;;;;8.55;4.75;;;6.00;57.00;;;;;;5095107;28;20016;-41
2022/03/11 05:55:58;;;;;;;7.38;4.80;;;5.90;57.00;;;;;;5095013;28;20052;-41
2022/03/11 05:58:23;;;;;;;8.43;5.22;;;5.90;57.00;;;;;;5095083;28;20145;-40
2022/03/11 06:00:49;;;;;;;8.98;5.50;;;6.00;57.10;;;;;;5094896;28;20024;-41
2022/03/11 06:03:15;;;;;;;8.85;5.13;;;5.90;57.20;;;;;;5094831;28;20442;-40
2022/03/11 06:05:40;;;;;;;9.25;5.63;;;5.90;57.20;;;;;;5094740;28;20096;-40
2022/03/11 06:08:06;;;;;;;7.90;5.25;;;5.90;57.20;;;;;;5094837;28;20031;-41
2022/03/11 06:10:32;;;;;;;10.60;4.90;;;6.00;57.30;;;;;;5094990;28;20016;-40
2022/03/11 06:12:58;;;;;;;8.40;5.13;;;5.90;57.30;;;;;;5094567;28;20024;-40
2022/03/11 06:15:23;;;;;;;7.10;4.78;;;5.90;57.30;;;;;;5094636;28;20028;-41
2022/03/11 06:17:49;;;;;;;11.25;6.22;;;5.90;57.40;;;;;;5094596;28;20020;-41
2022/03/11 06:20:14;;;;;;;8.48;4.72;;;5.90;57.30;;;;;;5094647;28;20539;-40
2022/03/11 06:22:50;;;;;;;7.57;5.00;;;5.90;57.40;;;;;;5094422;28;20365;-40
2022/03/11 06:25:17;;;;;;;6.60;4.65;;;5.90;57.50;;;;;;5094565;28;20472;-40
2022/03/11 06:27:43;;;;;;;9.73;5.15;;;6.00;57.50;;;;;;5094522;28;20456;-40
2022/03/11 06:30:09;;;;;;;7.75;5.03;;;5.90;57.40;;;;;;5094389;28;20031;-40
2022/03/11 06:35:56;;;;;;;8.50;5.30;;;6.00;57.60;;;;;;5094489;28;20164;-40
2022/03/11 06:38:22;;;;;;;9.77;5.20;;;6.00;57.50;;;;;;5094319;28;20025;-40
2022/03/11 06:40:49;;;;;;;10.55;5.40;;;6.00;57.40;;;;;;5094309;28;20108;-44
2022/03/11 06:43:15;;;;;;;7.60;5.35;;;6.10;57.40;;;;;;5093940;28;20055;-40
2022/03/11 06:45:41;;;;;;;8.50;5.22;;;6.10;57.40;;;;;;5093800;28;20077;-40
2022/03/11 06:48:07;;;;;;;9.75;5.55;;;6.10;57.40;;;;;;5094253;28;20375;-40
2022/03/11 06:50:32;;;;;;;8.18;5.20;;;6.10;57.30;;;;;;5075505;28;20017;-40
2022/03/11 06:52:58;;;;;;;7.65;5.28;;;6.10;57.30;;;;;;5093758;28;20144;-40
2022/03/11 06:55:23;;;;;;;11.00;5.90;;;6.20;57.30;;;;;;5093550;28;20036;-40
2022/03/11 06:57:49;;;;;;;9.73;5.50;;;6.20;57.30;;;;;;5094098;28;20028;-40
2022/03/11 07:00:15;;;;;;;8.02;5.50;;;6.20;57.40;;;;;;5094175;28;20042;-42
2022/03/11 07:02:41;;;;;;;8.95;5.25;;;6.20;57.60;;;;;;5093834;28;20443;-41
2022/03/11 07:05:08;;;;;;;10.32;5.63;;;6.30;57.50;;;;;;5093605;28;20049;-40
2022/03/11 07:07:34;;;;;;;9.57;5.60;;;6.30;57.40;;;;;;5093841;28;20092;-39
2022/03/11 07:10:01;;;;;;;10.02;6.15;;;6.30;57.30;;;;;;5093485;28;20024;-41
2022/03/11 07:12:28;;;;;;;8.07;4.90;;;6.40;57.30;;;;;;5093188;28;20472;-41
2022/03/11 07:14:53;;;;;;;11.88;5.43;;;6.40;58.50;;;;;;5075087;28;20020;-43
2022/03/11 07:17:19;;;;;;;8.95;5.22;;;6.50;59.30;;;;;;5093226;28;20318;-41
2022/03/11 07:19:44;;;;;;;9.50;5.85;;;6.40;58.50;;;;;;5093244;28;20099;-40
2022/03/11 07:22:10;;;;;;;10.55;5.55;;;6.50;58.30;;;;;;5093036;28;20456;-40
2022/03/11 07:24:36;;;;;;;7.72;5.55;;;6.50;58.10;;;;;;5092489;28;20106;-41
2022/03/11 07:27:01;;;;;;;10.30;5.90;;;6.60;58.10;;;;;;5092966;28;20020;-40
2022/03/11 07:29:27;;;;;;;9.80;4.80;;;6.60;58.40;;;;;;5093053;28;20024;-40
2022/03/11 07:31:52;;;;;;;5.60;3.63;;;6.70;58.70;;;;;;5092849;28;20099;-40
2022/03/11 07:34:18;;;;;;;9.27;5.47;;;6.70;61.60;;;;;;5092920;28;20169;-40
2022/03/11 07:36:44;;;;;;;8.90;4.78;;;6.80;61.60;;;;;;5093133;28;20080;-40
2022/03/11 07:39:10;;;;;;;9.10;4.75;;;6.80;62.20;;;;;;5092917;28;20051;-40
2022/03/11 07:41:37;;;;;;;7.50;4.20;;;6.90;63.00;;;;;;5093023;28;20103;-40
2022/03/11 07:44:03;;;;;;;7.35;4.63;;;7.00;64.20;;;;;;5093089;28;20035;-41
2022/03/11 07:46:30;;;;;;;7.35;4.82;;;7.00;63.50;;;;;;5093165;28;20495;-41
2022/03/11 07:48:56;;;;;;;8.68;5.35;;;7.10;65.80;;;;;;5074707;28;20064;-40
2022/03/11 07:51:22;;;;;;;11.43;5.47;;;7.20;64.90;;;;;;5074681;28;20024;-41
2022/03/11 07:53:48;;;;;;;10.48;6.32;;;7.20;63.20;;;;;;5093076;28;20097;-41
2022/03/11 07:56:15;;;;;;;12.05;6.32;;;7.30;62.20;;;;;;5092705;28;20078;-41
2022/03/11 07:58:41;;;;;;;9.45;5.22;;;7.30;61.30;;;;;;5092994;28;20020;-41
2022/03/11 08:01:11;;;;;;;9.70;5.63;;;7.40;61.00;;;;;;5093007;28;20422;-42
2022/03/11 08:03:38;;;;;;;8.55;5.22;;;7.50;63.30;;;;;;5075060;28;20027;-41
2022/03/11 08:06:05;;;;;;;8.00;5.15;;;7.50;63.10;;;;;;5093298;28;20550;-41
2022/03/11 08:08:31;;;;;;;8.38;5.50;;;7.60;63.90;;;;;;5092935;28;20035;-41
2022/03/11 08:10:56;;;;;;;8.75;5.68;;;7.70;66.30;;;;;;5074860;28;20027;-45
2022/03/11 08:13:23;;;;;;;8.70;6.25;;;7.70;64.80;;;;;;5093018;28;20099;-41
2022/03/11 08:15:49;;;;;;;11.18;5.95;;;7.80;64.50;;;;;;5092895;28;20035;-41
2022/03/11 08:18:14;;;;;;;12.10;6.13;;;7.80;64.60;;;;;;5092714;28;20024;-41
2022/03/11 08:20:40;;;;;;;12.23;6.10;;;7.90;63.90;;;;;;5093096;28;20035;-42
2022/03/11 08:23:07;;;;;;;13.68;6.00;;;8.00;64.10;;;;;;5092924;28;20036;-41
2022/03/11 08:25:33;;;;;;;11.57;6.78;;;8.00;63.30;;;;;;5092824;28;20023;-42
2022/03/11 08:27:59;;;;;;;11.80;6.38;;;8.10;63.20;;;;;;5092928;28;20020;-40
2022/03/11 08:30:25;;;;;;;11.35;5.82;;;8.10;63.80;;;;;;5092869;28;20455;-41
2022/03/11 08:32:52;;;;;;;15.85;7.88;;;8.20;66.00;;;;;;5093014;28;20069;-41
2022/03/11 08:35:19;;;;;;;10.20;6.15;;;8.30;65.40;;;;;;5094063;28;20112;-41
2022/03/11 08:37:45;;;;;;;12.15;6.72;;;8.40;65.80;;;;;;5096843;28;20016;-41
2022/03/11 08:40:12;;;;;;;8.65;5.35;;;8.50;66.40;;;;;;5078475;28;20082;-41
2022/03/11 08:42:39;;;;;;;8.73;5.55;;;8.50;70.20;;;;;;5096919;28;20468;-41
2022/03/11 08:45:06;;;;;;;12.35;5.72;;;8.60;68.40;;;;;;5096605;28;20469;-41
2022/03/11 08:47:32;;;;;;;11.38;6.43;;;8.60;67.80;;;;;;5096669;28;20028;-42
2022/03/11 08:49:58;;;;;;;9.10;5.78;;;8.70;69.60;;;;;;5096462;28;20073;-42
2022/03/11 08:52:25;;;;;;;7.53;4.75;;;8.70;71.10;;;;;;5096802;28;20024;-43
2022/03/11 08:54:52;;;;;;;11.10;6.55;;;8.80;70.00;;;;;;5077862;28;20040;-41
2022/03/11 08:57:18;;;;;;;10.43;6.10;;;8.80;70.20;;;;;;5096216;28;20035;-40
2022/03/11 08:59:44;;;;;;;12.57;5.75;;;8.90;69.80;;;;;;5096309;28;20024;-41
2022/03/11 09:02:10;;;;;;;9.68;5.22;;;9.00;70.80;;;;;;5096269;28;20488;-42
2022/03/11 09:04:36;;;;;;;11.48;7.05;;;9.10;71.80;;;;;;5096095;28;20028;-41
2022/03/11 09:07:03;;;;;;;12.05;6.55;;;9.10;70.50;;;;;;5095984;28;20024;-41
2022/03/11 09:09:32;;;;;;;13.45;7.18;;;9.10;69.50;;;;;;5096319;28;20020;-41
2022/03/11 09:11:58;;;;;;;10.30;5.90;;;9.20;68.60;;;;;;5096211;28;20380;-41
2022/03/11 09:14:24;;;;;;;10.20;6.35;;;9.30;69.50;;;;;;5095981;28;20023;-40
2022/03/11 09:16:49;;;;;;;10.70;6.35;;;9.30;69.80;;;;;;5095925;28;20187;-41
2022/03/11 09:19:15;;;;;;;13.50;6.30;;;9.40;68.60;;;;;;5095920;28;20063;-41
2022/03/11 09:21:41;;;;;;;9.68;6.55;;;9.50;69.90;;;;;;5095900;28;20023;-41
2022/03/11 09:24:07;;;;;;;11.95;6.57;;;9.50;69.70;;;;;;5095828;28;20059;-43
2022/03/11 09:26:32;;;;;;;9.80;6.47;;;9.60;69.40;;;;;;5095773;28;20475;-42
2022/03/11 09:28:58;;;;;;;11.02;6.50;;;9.60;69.20;;;;;;5095672;28;20039;-42
2022/03/11 09:31:24;;;;;;;11.23;7.43;;;9.70;68.90;;;;;;5095699;28;20103;-41
2022/03/11 09:33:49;;;;;;;10.88;6.47;;;9.80;68.40;;;;;;5095722;28;20096;-41
2022/03/11 09:36:15;;;;;;;11.73;7.30;;;9.80;68.90;;;;;;5095707;28;20506;-42
2022/03/11 09:38:41;;;;;;;9.68;6.15;;;9.90;67.50;;;;;;5077407;28;20099;-41
2022/03/11 09:41:07;;;;;;;9.93;6.10;;;10.00;69.50;;;;;;5095379;28;20025;-41
2022/03/11 09:43:33;;;;;;;9.77;5.65;;;10.00;69.70;;;;;;5095493;28;20437;-41
2022/03/11 09:45:59;;;;;;;8.50;4.95;;;10.10;69.00;;;;;;5077233;28;20031;-42
2022/03/11 09:48:25;;;;;;;7.45;4.75;;;10.10;69.10;;;;;;5095081;28;20024;-41
2022/03/11 09:50:50;;;;;;;9.75;5.90;;;10.20;68.90;;;;;;5095534;28;20016;-41
2022/03/11 09:53:17;;;;;;;10.80;6.00;;;10.20;70.00;;;;;;5095301;28;20050;-40
2022/03/11 09:55:43;;;;;;;13.60;6.88;;;10.30;68.50;;;;;;5095139;28;20050;-41
2022/03/11 09:58:09;;;;;;;6.82;3.95;;;10.30;68.50;;;;;;5095076;28;20148;-41
2022/03/11 10:00:35;;;;;;;9.23;5.43;;;10.40;70.90;;;;;;5095118;28;20509;-40
2022/03/11 10:03:01;;;;;;;12.73;6.90;;;10.50;69.50;;;;;;5095164;28;20391;-41
2022/03/11 10:05:46;;;;;;;12.95;7.30;;;10.50;67.60;;;;;;5094860;28;20020;-41
2022/03/11 10:08:12;;;;;;;8.38;5.75;;;10.60;67.50;;;;;;5094907;28;20100;-41
2022/03/11 10:10:38;;;;;;;4.30;3.25;;;10.60;68.40;;;;;;5095031;28;20464;-41
2022/03/11 10:13:07;;;;;;;11.75;7.22;;;10.70;70.10;;;;;;5094663;28;20024;-40
2022/03/11 10:15:32;;;;;;;12.95;7.25;;;10.70;70.30;;;;;;5076484;28;20024;-41
2022/03/11 10:18:02;;;;;;;9.63;6.85;;;10.80;70.10;;;;;;5094682;28;20475;-40
2022/03/11 10:20:29;;;;;;;10.57;7.00;;;10.80;68.70;;;;;;5094890;28;20476;-41
2022/03/11 10:22:56;;;;;;;11.43;7.72;;;10.90;68.10;;;;;;5094575;28;20480;-41
2022/03/11 10:25:25;;;;;;;9.57;6.53;;;11.00;66.30;;;;;;5094761;28;20043;-41
2022/03/11 10:28:02;;;;;;;8.20;4.35;;;11.00;65.40;;;;;;5094488;28;20531;-41
2022/03/11 10:30:29;;;;;;;6.88;4.57;;;11.20;67.70;;;;;;5094344;28;20024;-41
2022/03/11 10:32:59;;;;;;;6.05;3.88;;;11.20;67.20;;;;;;5094567;28;20012;-31
2022/03/11 10:35:34;;;;;;;5.85;4.55;;;11.30;67.80;;;;;;5094673;28;20024;-31
2022/03/11 10:38:11;;;;;;;9.05;4.63;;;11.40;67.50;;;;;;5094582;28;20517;-31
2022/03/11 10:40:54;;;;;;;9.00;6.00;;;11.40;68.30;;;;;;5094247;28;20028;-32
2022/03/11 10:43:23;;;;;;;9.18;5.55;;;11.50;66.90;;;;;;5094486;28;20027;-32
2022/03/11 10:45:51;;;;;;;10.90;6.35;;;11.60;67.00;;;;;;5094168;28;20039;-31
2022/03/11 10:48:18;;;;;;;8.40;6.35;;;11.60;66.10;;;;;;5094477;28;20111;-32
2022/03/11 10:50:44;;;;;;;11.60;6.70;;;11.70;65.90;;;;;;5075996;28;20016;-32
2022/03/11 10:53:11;;;;;;;7.97;4.20;;;11.80;65.50;;;;;;5094078;28;20023;-32
2022/03/11 10:55:41;;;;;;;7.70;5.20;;;11.90;66.70;;;;;;5093794;28;20151;-33
2022/03/11 10:58:08;;;;;;;9.18;4.88;;;11.90;66.00;;;;;;5075226;28;20392;-35
2022/03/11 11:00:35;;;;;;;9.55;6.05;;;12.00;65.70;;;;;;5075353;28;20024;-32
2022/03/11 11:03:05;;;;;;;9.88;5.63;;;12.00;65.80;;;;;;5093783;28;20522;-32
2022/03/11 11:05:31;;;;;;;6.95;4.22;;;12.10;65.40;;;;;;5093959;28;20055;-35
2022/03/11 11:07:58;;;;;;;8.02;6.03;;;12.20;65.20;;;;;;5093767;28;20061;-35
2022/03/11 11:10:26;;;;;;;9.50;5.53;;;12.20;65.00;;;;;;5093853;28;20028;-32
2022/03/11 11:12:53;;;;;;;6.22;3.83;;;12.30;64.60;;;;;;5075515;28;20016;-32
2022/03/11 11:15:19;;;;;;;6.88;4.47;;;12.40;65.50;;;;;;5075419;28;20017;-31
2022/03/11 11:17:49;;;;;;;6.22;4.40;;;12.40;65.20;;;;;;5093776;28;20020;-33
2022/03/11 11:20:33;;;;;;;9.95;6.65;;;12.40;65.80;;;;;;5093725;28;20024;-33
2022/03/11 11:23:03;;;;;;;12.63;7.93;;;12.50;63.50;;;;;;5093451;28;20020;-32
2022/03/11 11:25:29;;;;;;;10.82;6.60;;;12.60;62.80;;;;;;5093376;28;20085;-32
2022/03/11 11:28:00;;;;;;;5.93;4.38;;;12.70;63.00;;;;;;5093419;28;20020;-33
2022/03/11 11:30:26;;;;;;;8.48;4.55;;;12.70;62.90;;;;;;5075227;28;20115;-31
2022/03/11 11:32:52;;;;;;;11.55;5.72;;;12.80;63.70;;;;;;5093226;28;20016;-32
2022/03/11 11:35:32;;;;;;;11.23;6.53;;;12.80;62.40;;;;;;5093343;28;20176;-32
2022/03/11 11:38:00;;;;;;;9.68;5.22;;;12.90;61.70;;;;;;5075066;28;20097;-33
2022/03/11 11:40:28;;;;;;;8.02;5.43;;;12.90;62.10;;;;;;5093485;28;20507;-34
2022/03/11 11:43:12;;;;;;;10.77;6.70;;;13.00;62.20;;;;;;5093200;28;20142;-33
2022/03/11 11:45:45;;;;;;;9.88;5.90;;;13.10;62.00;;;;;;5093082;28;20028;-31
2022/03/11 11:48:32;;;;;;;8.15;5.45;;;13.10;61.60;;;;;;5093188;28;20028;-32
2022/03/11 11:51:03;;;;;;;11.13;7.45;;;13.10;61.90;;;;;;5093073;28;20077;-32
2022/03/11 11:53:32;;;;;;;9.52;6.40;;;13.20;60.20;;;;;;5093080;28;20020;-32
2022/03/11 11:55:59;;;;;;;7.78;5.55;;;13.30;60.40;;;;;;5074778;28;20123;-33
2022/03/11 11:58:25;;;;;;;12.55;7.85;;;13.40;61.10;;;;;;5093063;28;20508;-33
2022/03/11 12:00:57;;;;;;;8.77;5.10;;;13.50;59.20;;;;;;5093069;28;20028;-33
2022/03/11 12:03:49;;;;;;;10.02;6.45;;;13.60;60.50;;;;;;5093035;28;20028;-33
2022/03/11 12:06:52;;;;;;;9.25;6.20;;;13.60;60.00;;;;;;5087615;28;20060;-32
2022/03/11 12:09:42;;;;;;;11.70;6.70;;;13.60;60.90;;;;;;5093111;28;20176;-32
2022/03/11 12:12:20;;;;;;;9.52;5.35;;;13.60;60.00;;;;;;5099532;28;20035;-34
2022/03/11 12:15:01;;;;;;;12.15;7.38;;;13.60;60.80;;;;;;5099878;28;20424;-35
2022/03/11 12:17:51;;;;;;;13.07;7.95;;;13.70;59.50;;;;;;5099819;28;20028;-34
2022/03/11 12:20:35;;;;;;;8.15;5.57;;;13.70;58.20;;;;;;5099657;28;20081;-33
2022/03/11 12:23:11;;;;;;;7.72;5.35;;;13.80;58.80;;;;;;5081364;28;20051;-31
2022/03/11 12:25:44;;;;;;;8.00;4.70;;;13.80;59.50;;;;;;5081791;28;20016;-34
2022/03/11 12:28:34;;;;;;;8.15;5.28;;;13.90;59.20;;;;;;5099861;28;20409;-32
2022/03/11 12:31:21;;;;;;;9.13;6.43;;;14.00;59.10;;;;;;5099461;28;20028;-32
2022/03/11 12:33:51;;;;;;;7.22;4.75;;;14.00;58.20;;;;;;5099446;28;20480;-32
2022/03/11 12:36:24;;;;;;;10.23;7.05;;;14.10;59.00;;;;;;5099338;28;20108;-33
2022/03/11 12:38:52;;;;;;;14.90;7.63;;;14.20;58.20;;;;;;5099268;28;20110;-31
2022/03/11 12:41:24;;;;;;;8.23;5.43;;;14.30;58.00;;;;;;5099381;28;20026;-33
2022/03/11 12:43:50;;;;;;;7.65;5.40;;;14.30;58.10;;;;;;5099446;28;20028;-37
2022/03/11 12:46:16;;;;;;;10.13;5.97;;;14.40;57.80;;;;;;5099341;28;20028;-31
2022/03/11 12:48:44;;;;;;;8.98;6.20;;;14.50;57.50;;;;;;5099463;28;20107;-34
2022/03/11 12:51:17;;;;;;;6.82;5.13;;;14.60;56.80;;;;;;5081295;28;20373;-31
2022/03/11 12:53:44;;;;;;;9.88;6.10;;;14.60;56.90;;;;;;5099594;28;20053;-33
2022/03/11 12:56:10;;;;;;;9.18;5.40;;;14.60;56.90;;;;;;5099098;28;20158;-34